ADDS METAR Data INFO
IDs: Format: Raw Decoded Include TAF

Data at: 1146 UTC 23 Jun 2018

KGDV 231056Z AUTO 32008KT 10SM CLR 16/14 A2973 RMK AO2 SLP052 T01560139
KGDV 230956Z AUTO 27006KT 10SM CLR 15/13 A2971 RMK AO2 SLP048 T01500133
KGDV 230856Z AUTO 26003KT 10SM CLR 17/15 A2971 RMK AO2 SLP048 T01670150 56007
KGDV 230756Z AUTO 15003KT 10SM FEW120 17/16 A2972 RMK AO2 SLP049 T01670156
KGDV 230656Z AUTO 00000KT 10SM FEW120 17/15 A2973 RMK AO2 SLP053 T01720150 402440156
KGDV 230556Z AUTO 00000KT 10SM CLR 17/16 A2974 RMK AO2 SLP056 T01720156 10239 20161 50001
KGDV 230456Z AUTO 26003KT 10SM BKN120 17/15 A2974 RMK AO2 SLP059 T01670150
KGDV 230356Z AUTO 24005KT 10SM CLR 17/16 A2974 RMK AO2 SLP058 T01720156
KGDV 230256Z AUTO 24005KT 10SM CLR 18/15 A2974 RMK AO2 SLP057 T01780150 58002
KGDV 230156Z AUTO 25006KT 10SM CLR 19/14 A2974 RMK AO2 SLP060 T01940139 TSNO
KGDV 230056Z AUTO 24005KT 10SM CLR 23/14 A2975 RMK AO2 SLP059 T02330144 TSNO
KGDV 222356Z AUTO 21007KT 10SM CLR 23/14 A2974 RMK AO2 SLP058 T02330144 10244 20228 56009
KGDV 222256Z AUTO 23010KT 10SM FEW045 24/13 A2975 RMK AO2 SLP060 T02390133
KGDV 222156Z AUTO 25008KT 10SM FEW041 24/14 A2975 RMK AO2 SLP062 T02440144
KGDV 222056Z AUTO 24010KT 10SM FEW040 24/15 A2977 RMK AO2 LTG DSNT E SLP068 T02440150 58011
KGDV 221956Z AUTO 25008G17KT 220V290 10SM FEW041 24/14 A2979 RMK AO2 SLP074 T02390144
KGDV 221856Z AUTO 23014KT 10SM FEW039 23/15 A2981 RMK AO2 SLP078 T02330150
KGDV 221656Z AUTO 21005KT 10SM FEW036 23/15 A2982 RMK AO2 SLP081 T02330150
KGDV 221556Z AUTO 24007KT 10SM CLR 23/15 A2983 RMK AO2 SLP084 T02330150
KGDV 221456Z AUTO 20007KT 10SM BKN110 21/15 A2984 RMK AO2 SLP088 T02060150 58003
KGDV 221356Z AUTO 19008KT 10SM SCT100 18/16 A2985 RMK AO2 SLP092 T01830156
KGDV 221256Z AUTO 17006KT 10SM BKN095 17/15 A2985 RMK AO2 SLP093 T01670150
KGDV 221156Z AUTO 27004KT 10SM BKN110 16/14 A2985 RMK AO2 RAE00 SLP093 P0000 60003 70003 T01610144 10194 20156 50004
KGDV 221056Z AUTO 26003KT 10SM -RA FEW021 SCT100 BKN120 16/14 A2986 RMK AO2 SLP098 P0003 T01560144 TSNO
KGDV 220956Z AUTO 15005KT 10SM -RA FEW055 BKN075 OVC090 16/14 A2983 RMK AO2 RAB43 SLP088 P0000 T01610144
KGDV 220856Z AUTO 25005KT 10SM CLR 16/13 A2984 RMK AO2 SLP088 T01610133 56014
KGDV 220756Z AUTO 22007KT 10SM CLR 17/13 A2984 RMK AO2 SLP090 T01720133
KGDV 220656Z AUTO 17009KT 10SM CLR 18/14 A2986 RMK AO2 SLP096 T01830139 402670117
KGDV 220556Z AUTO 15006KT 10SM FEW070 19/13 A2988 RMK AO2 SLP102 T01890133 10267 20189 51001
KGDV 220456Z AUTO 17006KT 10SM CLR 19/13 A2987 RMK AO2 SLP100 T01940133
KGDV 220356Z AUTO 15006KT 10SM CLR 21/13 A2989 RMK AO2 SLP105 T02110128
KGDV 220256Z AUTO 12006KT 10SM CLR 22/13 A2988 RMK AO2 SLP102 T02220133 56007
KGDV 220156Z AUTO 15006KT 10SM CLR 25/14 A2988 RMK AO2 SLP102 T02500139
KGDV 220056Z AUTO 15008KT 10SM CLR 26/13 A2988 RMK AO2 SLP104 T02610128
KGDV 212356Z AUTO 16008KT 10SM CLR 26/13 A2990 RMK AO2 SLP113 T02610128 10267 20244 56020